Flight Track Log - Related Links

Times and Time Zones

All times are in EDT time to prevent confusion due to time zone crossing. See the ASQ4198 flight status page for this flight to view local times or setup timezone preferences in your user account.

Time Position Orientation Groundspeed Altitude Reporting Facility
EDT Latitude Longitude Course Direction KTS MPH feet Rate Location/Type
Sun 08:24:00 PM 29.8500 -94.2367 90° East  Level FlightAware
Sun 08:25:00 PM 29.8500 -94.0780 90° East  Level FlightAware
Sun 08:26:00 PM 29.8661 -93.9208 81° East  Level FlightAware
Sun 08:27:00 PM 29.8796 -93.7631 82° East  Level FlightAware
Sun 08:28:00 PM 29.8887 -93.6051 82° East  Level FlightAware
Sun 08:29:00 PM 29.9072 -93.4477 82° East  Level FlightAware
Sun 08:30:00 PM 29.9167 -93.2897 90° East  Level FlightAware
Sun 08:31:00 PM 29.9438 -93.1341 78° East  Level FlightAware
Sun 08:32:00 PM 29.9603 -92.9765 84° East  Level FlightAware
Sun 08:33:00 PM 29.9667 -92.8179 90° East  Level FlightAware
Sun 08:34:00 PM 29.9818 -92.6605 81° East  Level FlightAware
Sun 08:35:00 PM 29.9930 -92.5021 85° East  Level FlightAware
Sun 08:36:00 PM 30.0044 -92.3437 85° East  Level FlightAware
Sun 08:37:00 PM 30.0157 -92.1853 85° East  Level FlightAware
Sun 08:38:00 PM 30.0268 -92.0268 85° East  Level FlightAware
Sun 08:39:00 PM 30.0377 -91.8683 85° East  Level FlightAware
Sun 08:40:00 PM 30.0485 -91.7097 85° East  Level FlightAware
Sun 08:41:00 PM 30.0590 -91.5512 86° East  Level FlightAware
Sun 08:42:00 PM 30.0695 -91.3926 85° East  Level FlightAware
Sun 08:43:00 PM 30.0806 -91.2340 85° East  Level FlightAware
Sun 08:44:00 PM 30.0915 -91.0754 85° East  Level FlightAware
Sun 08:45:00 PM 30.1080 -90.9180 74° East  Level FlightAware
Sun 08:46:00 PM 30.1463 -90.7651 74° East  Level FlightAware
Sun 08:47:00 PM 30.1845 -90.6122 74° East  Level FlightAware
Sun 08:48:00 PM 30.2227 -90.4591 74° East  Level FlightAware
Sun 08:49:00 PM 30.2607 -90.3060 74° East  Level FlightAware
Sun 08:50:00 PM 30.2986 -90.1527 74° East  Level FlightAware
Sun 08:51:00 PM 30.3363 -89.9993 74° East  Level FlightAware
Sun 08:52:00 PM 30.3737 -89.8458 74° East  Level FlightAware
Sun 08:53:00 PM 30.4111 -89.6922 74° East  Level FlightAware
Sun 08:54:00 PM 30.4476 -89.5383 75° East  Level FlightAware
Sun 08:55:00 PM 30.4833 -89.3840 75° East  Level FlightAware
Sun 08:56:00 PM 30.5187 -89.2296 75° East  Level FlightAware
Sun 08:57:00 PM 30.5540 -89.0751 75° East  Level FlightAware
Sun 08:58:00 PM 30.5890 -88.9205 75° East  Level FlightAware
Sun 08:59:00 PM 30.6239 -88.7658 75° East  Level FlightAware
Sun 09:00:00 PM 30.6586 -88.6110 75° East  Level FlightAware
Sun 09:01:00 PM 30.6932 -88.4560 75° East  Level FlightAware
Sun 09:02:00 PM 30.7195 -88.2995 86° East  Level FlightAware
Sun 09:03:00 PM 30.7284 -88.1397 86° East  Level FlightAware
Sun 09:04:00 PM 30.7370 -87.9798 86° East  Level FlightAware
Sun 09:05:00 PM 30.7455 -87.8200 86° East  Level FlightAware
Sun 09:06:00 PM 30.7677 -87.6636 87° East  Level FlightAware
Sun 09:07:00 PM 30.7758 -87.5037 87° East  Level FlightAware
Sun 09:08:00 PM 30.7837 -87.3437 87° East  Level FlightAware
Sun 09:09:00 PM 30.7914 -87.1837 87° East  Level FlightAware
Sun 09:10:00 PM 30.7989 -87.0237 87° East  Level FlightAware
Sun 09:11:00 PM 30.8069 -86.8637 87° East  Level FlightAware
Sun 09:12:00 PM 30.8149 -86.7037 87° East  Level FlightAware
Sun 09:13:00 PM 30.8035 -86.5444 97° East  Level FlightAware
Sun 09:14:00 PM 30.7861 -86.3854 97° East  Level FlightAware
Sun 09:15:00 PM 30.7686 -86.2265 97° East  Level FlightAware
Sun 09:16:00 PM 30.7508 -86.0676 97° East  Level FlightAware
Sun 09:17:00 PM 30.7329 -85.9089 97° East  Level FlightAware
Sun 09:18:00 PM 30.7147 -85.7501 98° East  Level FlightAware
Sun 09:19:00 PM 30.6957 -85.5915 98° East  Level FlightAware
Sun 09:20:00 PM 30.6764 -85.4330 98° East  Level FlightAware
Sun 09:21:00 PM 30.6570 -85.2746 98° East  Level FlightAware
Sun 09:22:00 PM 30.6374 -85.1162 98° East  Level FlightAware
Sun 09:23:00 PM 30.6190 -84.9577 98° East  Level FlightAware
Sun 09:24:00 PM 30.6008 -84.7991 98° East  Level FlightAware
Sun 09:25:00 PM 30.5823 -84.6406 98° East  Level FlightAware
Sun 09:26:00 PM 30.5637 -84.4822 98° East  Level FlightAware
Sun 09:27:00 PM 30.5266 -84.3331 129° Southeast  Level FlightAware
Sun 09:28:00 PM 30.4399 -84.2090 129° Southeast  Level FlightAware
Sun 09:29:00 PM 30.3531 -84.0851 129° Southeast  Level FlightAware
Sun 09:30:00 PM 30.2643 -83.9633 131° Southeast  Level FlightAware
Sun 09:31:00 PM 30.1741 -83.8429 131° Southeast  Level FlightAware
Sun 09:32:00 PM 30.0838 -83.7228 131° Southeast  Level FlightAware
Sun 09:33:00 PM 29.9953 -83.6009 130° Southeast  Level FlightAware
Sun 09:34:00 PM 29.9072 -83.4789 130° Southeast  Level FlightAware
Sun 09:35:00 PM 29.8190 -83.3570 130° Southeast  Level FlightAware
Sun 09:36:00 PM 29.7307 -83.2354 130° Southeast  Level FlightAware
Sun 09:37:00 PM 29.6422 -83.1140 130° Southeast  Level FlightAware
Sun 09:38:00 PM 29.5415 -83.0111 155° Southeast  Level FlightAware
Sun 09:39:00 PM 29.4165 -82.9449 155° Southeast  Level FlightAware
Sun 09:40:00 PM 29.2915 -82.8785 154° Southeast  Level FlightAware
Sun 09:41:00 PM 29.1680 -82.8089 154° Southeast  Level FlightAware
Sun 09:42:00 PM 29.0445 -82.7393 154° Southeast  Level FlightAware
Sun 09:43:00 PM 28.9209 -82.6699 154° Southeast  Level FlightAware
Sun 09:44:00 PM 28.7973 -82.6007 154° Southeast  Level FlightAware
Sun 09:45:00 PM 28.6737 -82.5317 154° Southeast  Level FlightAware
Sun 09:46:00 PM 28.5500 -82.4628 154° Southeast  Level FlightAware
Sun 09:47:00 PM 28.4263 -82.3941 154° Southeast  Level FlightAware
Sun 09:48:00 PM 28.3011 -82.3316 174° South  Level FlightAware
Sun 09:49:00 PM 28.1641 -82.3164 174° South  Level FlightAware
Sun 09:50:00 PM 28.0271 -82.3011 174° South  Level FlightAware
Sun 09:51:00 PM 27.8965 -82.2534 163° South  Level FlightAware
Sun 09:52:00 PM 27.7648 -82.2080 163° South  Level FlightAware
Sun 09:53:00 PM 27.6331 -82.1627 163° South  Level FlightAware
Sun 09:54:00 PM 27.5014 -82.1176 163° South  Level FlightAware
Sun 09:55:00 PM 27.3693 -82.0767 162° South  Level FlightAware
Sun 09:56:00 PM 27.2383 -82.0290 162° South  Level FlightAware
Sun 09:57:00 PM 27.1073 -81.9814 162° South  Level FlightAware
Sun 09:58:00 PM 26.9739 -81.9453 156° South  Level FlightAware
Sun 09:59:00 PM 26.8565 -81.8732 138° Southeast  Level FlightAware
Sun 10:00:00 PM 26.7538 -81.7705 138° Southeast  Level FlightAware
Sun 10:01:00 PM 26.6695 -81.6562 73° East  Level FlightAware
Sun 10:02:00 PM 26.7097 -81.5088 73° East  Level FlightAware
Sun 10:03:00 PM 26.7446 -81.3603 80° East  Level FlightAware
Sun 10:04:00 PM 26.7696 -81.2089 67° East  Level FlightAware
Sun 10:05:00 PM 26.8183 -81.0654 84° East  Level FlightAware
Sun 10:06:00 PM 26.8323 -80.9119 84° East  Level FlightAware
Sun 10:07:00 PM 26.8045 -80.7636 110° East  Level FlightAware
Sun 10:08:00 PM 26.7497 -80.6224 112° Southeast  Level FlightAware
Sun 10:09:00 PM 26.7000 -80.4790 90° East  Level FlightAware
Sun 10:10:00 PM 26.6430 -80.3424 113° Southeast  Level FlightAware
Sun 10:11:00 PM 26.5849 -80.2032 119° Southeast  Level FlightAware
Sun 10:12:00 PM 26.6647 -80.0859 50° Northeast  Level FlightAware
Sun 10:13:00 PM 26.6667 -80.0833 50° Northeast  Level FlightAware
Sun 10:14:00 PM 26.6832 -80.0956 50° Northeast  Level Estimated
Sun 10:15:00 PM 26.6832 -80.0956 50° Northeast  Level Estimated
Sun 10:16:00 PM 26.6832 -80.0956 50° Northeast  Level Estimated
Sun 10:17:00 PM 26.6832 -80.0956 50° Northeast  Level Estimated
Sun 10:18:00 PM 26.6832 -80.0956 50° Northeast  Level Estimated
Sun 10:19:00 PM 26.6832 -80.0956 50° Northeast  Level Estimated
Sun 10:20:00 PM 26.6832 -80.0956 50° Northeast  Level Estimated
Sun 10:21:00 PM 26.6832 -80.0956 50° Northeast  Level Estimated
Sun 10:22:00 PM 26.6832 -80.0956 50° Northeast  Level Estimated
Sun 10:23:00 PM 26.6832 -80.0956 50° Northeast  Level Estimated
Sun 10:24:00 PM 26.6832 -80.0956 50° Northeast  Level Estimated
Sun 10:25:00 PM 26.6832 -80.0956 50° Northeast  Level Estimated
Sun 10:26:00 PM 26.6832 -80.0956 50° Northeast  Level Estimated

Login

Don't have an account? Register now (free) for customized features, flight alerts, and more!